createdAt,value
2022-10-28T00:00:45.989Z,13.54
2022-10-28T00:03:12.108Z,13.55
2022-10-28T00:05:38.254Z,13.59
2022-10-28T00:08:04.441Z,13.59
2022-10-28T00:10:30.632Z,13.59
2022-10-28T00:12:56.767Z,13.59
2022-10-28T00:15:22.964Z,13.59
2022-10-28T00:17:49.126Z,13.61
2022-10-28T00:20:15.312Z,13.63
2022-10-28T00:22:41.458Z,13.52
2022-10-28T00:25:07.661Z,13.63
2022-10-28T00:27:33.800Z,13.63
2022-10-28T00:29:59.981Z,13.62
2022-10-28T00:32:26.120Z,13.62
2022-10-28T00:34:52.287Z,13.60
2022-10-28T00:37:18.498Z,13.60
2022-10-28T00:39:44.717Z,13.45
2022-10-28T00:42:10.878Z,13.64
2022-10-28T00:44:37.095Z,13.65
2022-10-28T00:47:03.326Z,13.67
2022-10-28T00:49:29.566Z,13.67
2022-10-28T00:51:55.713Z,13.69
2022-10-28T00:54:21.899Z,13.71
2022-10-28T00:56:48.140Z,13.71
2022-10-28T00:59:14.352Z,13.77
2022-10-28T01:01:40.571Z,13.79
2022-10-28T01:04:06.803Z,13.84
2022-10-28T01:06:36.025Z,13.88
2022-10-28T01:09:02.256Z,13.90
2022-10-28T01:11:28.397Z,13.93
2022-10-28T01:13:54.581Z,13.96
2022-10-28T01:16:20.811Z,14.00
2022-10-28T01:18:46.964Z,14.04
2022-10-28T01:21:13.075Z,14.12
2022-10-28T01:23:39.254Z,14.21
2022-10-28T01:26:05.421Z,14.29
2022-10-28T01:28:31.583Z,14.33
2022-10-28T01:30:57.778Z,14.36
2022-10-28T01:33:23.963Z,14.40
2022-10-28T01:35:50.131Z,14.44
2022-10-28T01:38:16.320Z,14.48
2022-10-28T01:40:42.472Z,14.53
2022-10-28T01:43:08.574Z,14.59
2022-10-28T01:45:34.704Z,14.67
2022-10-28T01:48:00.876Z,14.72
2022-10-28T01:50:26.995Z,14.75
2022-10-28T01:52:53.354Z,14.77
2022-10-28T01:55:19.678Z,14.79
2022-10-28T01:57:45.826Z,14.83
2022-10-28T02:00:11.959Z,14.87
2022-10-28T02:02:38.104Z,14.91
2022-10-28T02:05:04.250Z,14.95
2022-10-28T02:07:30.395Z,14.96
2022-10-28T02:09:56.511Z,15.00
2022-10-28T02:12:22.609Z,15.02
2022-10-28T02:14:48.738Z,15.04
2022-10-28T02:17:14.865Z,15.04
2022-10-28T02:19:40.990Z,15.07
2022-10-28T02:22:07.155Z,15.08
2022-10-28T02:24:35.176Z,15.11
2022-10-28T02:27:08.584Z,15.13
2022-10-28T02:29:34.769Z,15.14
2022-10-28T02:32:00.927Z,15.12
2022-10-28T02:34:27.108Z,15.12
2022-10-28T02:36:53.247Z,15.13
2022-10-28T02:39:19.370Z,15.14
2022-10-28T02:41:45.532Z,15.17
2022-10-28T02:44:11.722Z,15.24
2022-10-28T02:46:37.845Z,15.29
2022-10-28T02:49:03.986Z,15.34
2022-10-28T02:51:30.112Z,15.40
2022-10-28T02:53:56.247Z,15.48
2022-10-28T02:56:22.798Z,15.51
2022-10-28T02:58:48.987Z,15.55
2022-10-28T03:01:15.190Z,15.61
2022-10-28T03:03:41.440Z,15.67
2022-10-28T03:06:07.585Z,15.71
2022-10-28T03:08:33.712Z,15.80
2022-10-28T03:10:59.823Z,15.81
2022-10-28T03:13:25.972Z,15.85
2022-10-28T03:15:52.097Z,15.94
2022-10-28T03:18:18.215Z,16.01
2022-10-28T03:20:44.370Z,16.13
2022-10-28T03:23:10.541Z,16.21
2022-10-28T03:25:36.698Z,16.30
2022-10-28T03:28:02.809Z,16.31
2022-10-28T03:30:28.951Z,16.30
2022-10-28T03:32:55.262Z,16.31
2022-10-28T03:35:21.696Z,16.30
2022-10-28T03:37:47.826Z,16.29
2022-10-28T03:40:13.955Z,16.31
2022-10-28T03:42:41.432Z,16.28
2022-10-28T03:45:09.724Z,16.23
2022-10-28T03:47:35.862Z,16.18
2022-10-28T03:50:01.971Z,16.18
2022-10-28T03:52:28.097Z,16.13
2022-10-28T03:54:54.246Z,16.10
2022-10-28T03:57:20.407Z,16.09
2022-10-28T03:59:46.526Z,16.13
2022-10-28T04:02:12.876Z,16.16
2022-10-28T04:04:39.231Z,16.15
2022-10-28T04:07:05.356Z,16.22
2022-10-28T04:09:31.511Z,16.24
2022-10-28T04:11:57.657Z,16.23
2022-10-28T04:14:23.789Z,16.27
2022-10-28T04:16:49.920Z,16.35
2022-10-28T04:19:16.033Z,16.34
2022-10-28T04:21:42.188Z,16.32
2022-10-28T04:24:08.310Z,16.37
2022-10-28T04:26:34.411Z,16.37
2022-10-28T04:29:00.551Z,16.35
2022-10-28T04:31:26.652Z,16.29
2022-10-28T04:33:52.752Z,16.21
2022-10-28T04:36:18.886Z,16.21
2022-10-28T04:38:44.992Z,16.21
2022-10-28T04:41:11.107Z,16.16
2022-10-28T04:43:37.241Z,16.15
2022-10-28T04:46:03.368Z,16.08
2022-10-28T04:48:29.547Z,15.93
2022-10-28T04:50:55.671Z,15.83
2022-10-28T04:53:21.778Z,15.72
2022-10-28T04:55:47.943Z,15.68
2022-10-28T04:58:14.051Z,15.58
2022-10-28T05:00:40.167Z,15.47
2022-10-28T05:03:06.307Z,15.32
2022-10-28T05:05:32.433Z,15.31
2022-10-28T05:07:58.573Z,15.27
2022-10-28T05:10:24.701Z,15.21
2022-10-28T05:12:50.822Z,15.15
2022-10-28T05:15:16.999Z,15.12
2022-10-28T05:17:43.122Z,15.03
2022-10-28T05:20:09.250Z,14.94
2022-10-28T05:22:35.391Z,14.88
2022-10-28T05:25:02.719Z,14.81
2022-10-28T05:27:28.863Z,14.77
2022-10-28T05:29:55.002Z,14.70
2022-10-28T05:32:21.131Z,14.75
2022-10-28T05:34:47.282Z,14.73
2022-10-28T05:37:13.397Z,14.73
2022-10-28T05:39:39.598Z,14.72
2022-10-28T05:42:05.705Z,14.71
2022-10-28T05:44:31.852Z,14.72
2022-10-28T05:46:58.012Z,14.73
2022-10-28T05:49:24.142Z,14.77
2022-10-28T05:51:50.253Z,14.82
2022-10-28T05:54:18.408Z,14.85
2022-10-28T05:56:44.514Z,14.90
2022-10-28T05:59:10.765Z,14.98
2022-10-28T06:01:36.960Z,15.02
2022-10-28T06:04:03.201Z,15.04
2022-10-28T06:06:29.380Z,15.01
2022-10-28T06:08:55.497Z,14.98
2022-10-28T06:11:20.114Z,14.94
2022-10-28T06:13:46.214Z,14.93
2022-10-28T06:16:13.459Z,14.93
2022-10-28T06:18:39.864Z,14.98
2022-10-28T06:21:06.001Z,15.02
2022-10-28T06:23:32.138Z,15.01
2022-10-28T06:28:29.337Z,15.07
2022-10-28T06:30:55.486Z,15.17
2022-10-28T06:33:21.628Z,15.28
2022-10-28T06:35:47.780Z,15.37
2022-10-28T06:38:13.906Z,15.40
2022-10-28T06:40:40.048Z,15.38
2022-10-28T06:43:06.212Z,15.38
2022-10-28T06:45:32.374Z,15.40
2022-10-28T06:48:00.041Z,15.43
2022-10-28T06:50:26.221Z,15.47
2022-10-28T06:52:52.474Z,15.60
2022-10-28T06:55:18.637Z,15.74
2022-10-28T06:57:44.790Z,15.80
2022-10-28T07:00:10.925Z,15.82
2022-10-28T07:02:40.196Z,15.85
2022-10-28T07:05:08.880Z,15.90
2022-10-28T07:07:35.039Z,15.94
2022-10-28T07:10:01.188Z,15.94
2022-10-28T07:12:27.353Z,15.95
2022-10-28T07:14:53.500Z,15.94
2022-10-28T07:17:19.649Z,15.96
2022-10-28T07:19:48.633Z,15.98
2022-10-28T07:22:14.805Z,16.00
2022-10-28T07:24:40.936Z,16.01
2022-10-28T07:27:07.078Z,16.02
2022-10-28T07:29:33.213Z,16.09
2022-10-28T07:31:59.399Z,16.11
2022-10-28T07:34:27.230Z,16.13
2022-10-28T07:36:53.768Z,16.18
2022-10-28T07:39:19.949Z,16.22
2022-10-28T07:41:46.095Z,16.26
2022-10-28T07:44:12.228Z,16.30
2022-10-28T07:46:38.372Z,16.30
2022-10-28T07:49:04.501Z,16.27
2022-10-28T07:51:30.629Z,16.30
2022-10-28T07:53:56.830Z,16.34
2022-10-28T07:56:22.969Z,16.37
2022-10-28T07:58:49.146Z,16.45
2022-10-28T08:01:17.716Z,16.52
2022-10-28T08:03:43.974Z,16.55
2022-10-28T08:06:11.316Z,16.65
2022-10-28T08:08:37.472Z,16.70
2022-10-28T08:11:03.629Z,16.72
2022-10-28T08:13:29.789Z,16.77
2022-10-28T08:15:56.179Z,16.82
2022-10-28T08:18:25.547Z,16.84
2022-10-28T08:20:54.465Z,16.83
2022-10-28T08:23:20.619Z,16.94
2022-10-28T08:25:46.753Z,17.03
2022-10-28T08:28:12.905Z,17.10
2022-10-28T08:30:56.637Z,17.18
2022-10-28T08:33:25.667Z,17.29
2022-10-28T08:35:51.817Z,17.38
2022-10-28T08:38:17.955Z,17.42
2022-10-28T08:40:44.120Z,17.45
2022-10-28T08:43:10.260Z,17.52
2022-10-28T08:45:36.434Z,17.57
2022-10-28T08:48:02.620Z,17.63
2022-10-28T08:50:28.812Z,17.70
2022-10-28T08:52:55.333Z,17.77
2022-10-28T08:55:21.761Z,17.84
2022-10-28T08:57:47.888Z,17.87
2022-10-28T09:00:14.044Z,17.88
2022-10-28T09:02:40.209Z,17.88
2022-10-28T09:05:06.373Z,17.89
2022-10-28T09:07:32.493Z,17.97
2022-10-28T09:09:58.626Z,17.98
2022-10-28T09:12:24.902Z,18.03
2022-10-28T09:14:58.218Z,18.03
2022-10-28T09:17:24.345Z,18.11
2022-10-28T09:19:50.470Z,18.16
2022-10-28T09:22:20.681Z,18.17
2022-10-28T09:24:47.351Z,18.20
2022-10-28T09:27:13.470Z,18.25
2022-10-28T09:29:41.919Z,18.34
2022-10-28T09:32:10.413Z,18.35
2022-10-28T09:34:36.582Z,18.34
2022-10-28T09:37:02.711Z,18.43
2022-10-28T09:39:28.822Z,18.56
2022-10-28T09:41:54.992Z,18.64
2022-10-28T09:44:21.120Z,18.78
2022-10-28T09:46:47.293Z,18.84
2022-10-28T09:49:13.421Z,18.93
2022-10-28T09:51:39.561Z,19.02
2022-10-28T09:54:05.702Z,19.28
2022-10-28T09:56:31.837Z,19.39
2022-10-28T09:58:57.996Z,20.29
2022-10-28T10:01:24.164Z,20.53
2022-10-28T10:03:50.345Z,20.47
2022-10-28T10:06:16.468Z,20.72
2022-10-28T10:08:42.632Z,21.41
2022-10-28T10:11:08.750Z,22.20
2022-10-28T10:13:41.130Z,22.15
2022-10-28T10:16:07.282Z,22.01
2022-10-28T10:18:33.459Z,22.05
2022-10-28T10:20:59.636Z,22.03
2022-10-28T10:23:25.854Z,22.07
2022-10-28T10:25:52.014Z,21.72
2022-10-28T10:28:18.188Z,21.48
2022-10-28T10:30:44.323Z,21.29
2022-10-28T10:33:10.434Z,21.06
2022-10-28T10:35:36.649Z,21.11
2022-10-28T10:38:02.828Z,21.05
2022-10-28T10:40:28.965Z,21.16
2022-10-28T10:43:12.747Z,21.74
2022-10-28T10:45:40.057Z,22.42
2022-10-28T10:48:06.210Z,22.65
2022-10-28T10:53:03.378Z,22.60
2022-10-28T10:55:29.491Z,22.66
2022-10-28T10:57:56.058Z,22.74
2022-10-28T11:00:22.447Z,22.65
2022-10-28T11:02:52.208Z,22.81
2022-10-28T11:05:25.753Z,22.84
2022-10-28T11:07:55.663Z,23.09
2022-10-28T11:10:21.968Z,22.90
2022-10-28T11:12:49.541Z,22.88
2022-10-28T11:15:15.719Z,22.82
2022-10-28T11:17:41.873Z,23.00
2022-10-28T11:20:08.028Z,23.19
2022-10-28T11:22:34.328Z,23.19
2022-10-28T11:25:00.525Z,23.03
2022-10-28T11:27:26.666Z,22.96
2022-10-28T11:29:52.805Z,22.98
2022-10-28T11:32:18.962Z,23.15
2022-10-28T11:34:45.110Z,23.12
2022-10-28T11:37:11.221Z,23.18
2022-10-28T11:39:37.373Z,23.17
2022-10-28T11:42:03.531Z,23.29
2022-10-28T11:44:29.722Z,23.25
2022-10-28T11:46:57.578Z,23.16
2022-10-28T11:49:25.762Z,23.11
2022-10-28T11:51:51.893Z,23.18
2022-10-28T11:54:18.045Z,23.18
2022-10-28T11:56:44.189Z,23.27
2022-10-28T11:59:10.349Z,23.34
2022-10-28T12:01:36.573Z,23.29
2022-10-28T12:04:02.813Z,23.32
2022-10-28T12:06:28.986Z,23.11
2022-10-28T12:08:55.190Z,23.02
2022-10-28T12:11:21.362Z,22.92
2022-10-28T12:13:47.559Z,23.05
2022-10-28T12:16:13.688Z,23.16
2022-10-28T12:18:39.800Z,23.34
2022-10-28T12:21:05.981Z,23.48
2022-10-28T12:23:32.161Z,23.54
2022-10-28T12:25:58.284Z,23.49
2022-10-28T12:28:24.414Z,23.55
2022-10-28T12:30:50.527Z,23.53
2022-10-28T12:33:17.205Z,23.47
2022-10-28T12:35:43.344Z,23.47
2022-10-28T12:38:09.801Z,23.40
2022-10-28T12:40:35.963Z,23.31
2022-10-28T12:43:02.094Z,23.34
2022-10-28T12:45:28.237Z,23.26
2022-10-28T12:47:54.624Z,23.12
2022-10-28T12:50:20.934Z,23.01
2022-10-28T12:52:47.076Z,22.98
2022-10-28T12:57:44.284Z,23.03
2022-10-28T13:00:10.578Z,23.25
2022-10-28T13:02:36.877Z,23.51
2022-10-28T13:05:03.033Z,23.66
2022-10-28T13:07:29.166Z,23.74
2022-10-28T13:09:55.315Z,23.84
2022-10-28T13:12:21.462Z,23.93
2022-10-28T13:14:47.582Z,23.80
2022-10-28T13:17:13.745Z,23.60
2022-10-28T13:19:39.914Z,23.48
2022-10-28T13:22:06.035Z,23.50
2022-10-28T13:24:32.415Z,23.39
2022-10-28T13:26:58.615Z,23.39
2022-10-28T13:29:24.796Z,23.52
2022-10-28T13:31:51.000Z,23.61
2022-10-28T13:34:17.123Z,23.64
2022-10-28T13:36:43.268Z,23.63
2022-10-28T13:39:09.416Z,23.54
2022-10-28T13:41:35.519Z,23.42
2022-10-28T13:44:01.685Z,23.36
2022-10-28T13:46:27.796Z,23.27
2022-10-28T13:48:53.982Z,23.30
2022-10-28T13:51:20.107Z,23.36
2022-10-28T13:53:46.277Z,23.43
2022-10-28T13:56:12.490Z,23.43
2022-10-28T13:58:38.622Z,23.47
2022-10-28T14:01:04.824Z,23.50
2022-10-28T14:03:31.157Z,23.39
2022-10-28T14:05:57.515Z,23.37
2022-10-28T14:08:23.735Z,23.30
2022-10-28T14:10:49.865Z,23.33
2022-10-28T14:15:47.107Z,23.42
2022-10-28T14:18:37.325Z,23.40
2022-10-28T14:20:59.690Z,23.35
2022-10-28T14:23:25.835Z,23.33
2022-10-28T14:25:51.979Z,23.36
2022-10-28T14:28:18.154Z,23.48
2022-10-28T14:30:46.480Z,23.56
2022-10-28T14:33:12.746Z,23.62
2022-10-28T14:35:38.883Z,23.62
2022-10-28T14:38:05.034Z,23.66
2022-10-28T14:40:31.210Z,23.74
2022-10-28T14:42:57.368Z,23.73
2022-10-28T14:45:25.870Z,23.71
2022-10-28T14:47:52.350Z,23.52
2022-10-28T14:50:18.722Z,23.44
2022-10-28T14:52:50.638Z,23.39
2022-10-28T14:55:16.760Z,23.30
2022-10-28T14:57:42.944Z,23.33
2022-10-28T15:00:09.120Z,23.31
2022-10-28T15:02:35.425Z,23.31
2022-10-28T15:05:01.705Z,23.34
2022-10-28T15:07:27.823Z,23.30
2022-10-28T15:09:54.060Z,23.24
2022-10-28T15:12:20.295Z,23.18
2022-10-28T15:14:46.479Z,23.09
2022-10-28T15:17:12.625Z,23.06
2022-10-28T15:19:38.825Z,22.92
2022-10-28T15:22:04.977Z,22.72
2022-10-28T15:24:31.172Z,22.57
2022-10-28T15:26:57.464Z,22.35
2022-10-28T15:29:23.589Z,22.25
2022-10-28T15:31:49.793Z,22.08
2022-10-28T15:34:15.958Z,21.98
2022-10-28T15:36:42.195Z,21.86
2022-10-28T15:39:08.472Z,21.81
2022-10-28T15:41:34.645Z,21.74
2022-10-28T15:44:00.788Z,21.58
2022-10-28T15:46:26.914Z,21.55
2022-10-28T15:48:53.090Z,21.41
2022-10-28T15:51:19.211Z,21.24
2022-10-28T15:53:45.664Z,21.10
2022-10-28T15:56:11.853Z,20.97
2022-10-28T15:58:37.985Z,20.88
2022-10-28T16:01:04.173Z,20.76
2022-10-28T16:06:01.561Z,20.58
2022-10-28T16:08:27.688Z,20.50
2022-10-28T16:10:53.871Z,20.46
2022-10-28T16:13:19.991Z,20.37
2022-10-28T16:15:46.144Z,20.30
2022-10-28T16:18:12.274Z,20.23
2022-10-28T16:20:38.444Z,20.20
2022-10-28T16:25:44.699Z,19.99
2022-10-28T16:28:10.851Z,19.92
2022-10-28T16:30:36.980Z,19.86
2022-10-28T16:33:03.140Z,19.80
2022-10-28T16:35:29.254Z,19.75
2022-10-28T16:37:55.990Z,19.67
2022-10-28T16:43:09.467Z,19.57
2022-10-28T16:45:35.647Z,19.50
2022-10-28T16:48:01.798Z,19.43
2022-10-28T16:50:27.923Z,19.34
2022-10-28T16:52:54.087Z,19.21
2022-10-28T16:55:20.213Z,19.11
2022-10-28T16:57:46.371Z,18.96
2022-10-28T17:00:12.547Z,18.86
2022-10-28T17:02:38.843Z,18.73
2022-10-28T17:05:05.214Z,18.68
2022-10-28T17:07:44.004Z,18.60
2022-10-28T17:10:12.597Z,18.50
2022-10-28T17:12:38.761Z,18.45
2022-10-28T17:15:04.904Z,18.38
2022-10-28T17:17:31.063Z,18.32
2022-10-28T17:19:57.211Z,18.27
2022-10-28T17:22:23.539Z,18.24
2022-10-28T17:24:49.725Z,18.17
2022-10-28T17:27:15.843Z,18.14
2022-10-28T17:29:42.015Z,18.10
2022-10-28T17:32:08.197Z,18.07
2022-10-28T17:34:34.352Z,18.06
2022-10-28T17:37:00.509Z,18.03
2022-10-28T17:39:26.773Z,17.91
2022-10-28T17:41:52.920Z,18.02
2022-10-28T17:44:19.071Z,17.99
2022-10-28T17:46:45.218Z,17.90
2022-10-28T17:49:11.370Z,17.81
2022-10-28T17:51:37.517Z,17.76
2022-10-28T17:54:03.668Z,17.68
2022-10-28T17:56:29.792Z,17.60
2022-10-28T17:58:55.931Z,17.50
2022-10-28T18:01:22.149Z,17.44
2022-10-28T18:03:48.415Z,17.40
2022-10-28T18:06:14.539Z,17.35
2022-10-28T18:08:40.693Z,17.33
2022-10-28T18:11:06.897Z,17.31
2022-10-28T18:13:33.064Z,17.28
2022-10-28T18:15:59.297Z,17.28
2022-10-28T18:18:25.478Z,17.27
2022-10-28T18:20:51.646Z,17.24
2022-10-28T18:23:17.774Z,17.25
2022-10-28T18:25:44.894Z,17.21
2022-10-28T18:28:11.043Z,17.18
2022-10-28T18:30:37.200Z,17.14
2022-10-28T18:33:03.369Z,17.10
2022-10-28T18:35:29.557Z,17.07
2022-10-28T18:37:56.282Z,17.02
2022-10-28T18:40:22.739Z,16.98
2022-10-28T18:42:48.923Z,16.92
2022-10-28T18:45:15.267Z,16.89
2022-10-28T18:47:41.484Z,16.86
2022-10-28T18:50:07.643Z,16.83
2022-10-28T18:52:33.774Z,16.75
2022-10-28T18:54:59.925Z,16.72
2022-10-28T18:57:26.081Z,16.69
2022-10-28T19:00:17.275Z,16.65
2022-10-28T19:02:41.030Z,16.62
2022-10-28T19:05:09.531Z,16.59
2022-10-28T19:07:35.684Z,16.58
2022-10-28T19:10:01.853Z,16.58
2022-10-28T19:12:27.995Z,16.63
2022-10-28T19:14:54.155Z,16.65
2022-10-28T19:17:20.297Z,16.69
2022-10-28T19:19:46.419Z,16.70
2022-10-28T19:22:12.516Z,16.68
2022-10-28T19:24:38.653Z,16.68
2022-10-28T19:27:04.781Z,16.63
2022-10-28T19:29:31.001Z,16.65
2022-10-28T19:31:57.125Z,16.63
2022-10-28T19:34:23.248Z,16.64
2022-10-28T19:36:49.367Z,16.63
2022-10-28T19:39:15.489Z,16.63
2022-10-28T19:41:41.639Z,16.62
2022-10-28T19:44:07.767Z,16.58
2022-10-28T19:46:33.895Z,16.54
2022-10-28T19:49:00.037Z,16.52
2022-10-28T19:51:26.171Z,16.45
2022-10-28T19:53:52.334Z,16.38
2022-10-28T19:56:18.458Z,16.32
2022-10-28T19:58:44.565Z,16.23
2022-10-28T20:01:10.822Z,16.18
2022-10-28T20:03:39.176Z,16.13
2022-10-28T20:06:05.529Z,16.07
2022-10-28T20:08:31.679Z,16.03
2022-10-28T20:10:57.829Z,15.96
2022-10-28T20:13:23.937Z,15.91
2022-10-28T20:15:50.055Z,15.87
2022-10-28T20:18:16.211Z,15.84
2022-10-28T20:20:42.344Z,15.79
2022-10-28T20:23:08.482Z,15.72
2022-10-28T20:25:34.625Z,15.70
2022-10-28T20:28:00.775Z,15.66
2022-10-28T20:30:26.912Z,15.62
2022-10-28T20:32:55.736Z,15.58
2022-10-28T20:35:22.093Z,15.58
2022-10-28T20:37:48.323Z,15.64
2022-10-28T20:40:14.504Z,15.65
2022-10-28T20:42:40.635Z,15.62
2022-10-28T20:45:06.787Z,15.61
2022-10-28T20:47:32.901Z,15.57
2022-10-28T20:49:59.011Z,15.56
2022-10-28T20:54:56.208Z,15.48
2022-10-28T20:57:22.318Z,15.43
2022-10-28T20:59:48.476Z,15.39
2022-10-28T21:02:14.795Z,15.34
2022-10-28T21:04:40.994Z,15.29
2022-10-28T21:07:07.147Z,15.33
2022-10-28T21:09:33.281Z,15.28
2022-10-28T21:11:59.412Z,15.29
2022-10-28T21:14:25.550Z,15.35
2022-10-28T21:16:51.660Z,15.29
2022-10-28T21:19:17.786Z,15.28
2022-10-28T21:21:43.938Z,15.23
2022-10-28T21:24:10.097Z,15.23
2022-10-28T21:26:36.263Z,15.21
2022-10-28T21:29:02.429Z,15.22
2022-10-28T21:31:28.539Z,15.14
2022-10-28T21:33:54.688Z,15.05
2022-10-28T21:36:20.842Z,15.01
2022-10-28T21:38:46.987Z,14.97
2022-10-28T21:41:13.113Z,14.96
2022-10-28T21:43:39.260Z,14.90
2022-10-28T21:46:05.404Z,14.86
2022-10-28T21:48:31.573Z,14.80
2022-10-28T21:50:57.689Z,14.76
2022-10-28T21:53:23.853Z,14.70
2022-10-28T21:55:51.135Z,14.69
2022-10-28T21:58:17.530Z,14.66
2022-10-28T22:00:44.664Z,14.63
2022-10-28T22:03:10.796Z,14.60
2022-10-28T22:05:36.921Z,14.56
2022-10-28T22:08:04.915Z,14.54
2022-10-28T22:10:31.465Z,14.52
2022-10-28T22:12:57.585Z,14.50
2022-10-28T22:15:23.720Z,14.48
2022-10-28T22:17:49.859Z,14.49
2022-10-28T22:20:16.068Z,14.45
2022-10-28T22:22:42.284Z,14.43
2022-10-28T22:25:10.453Z,14.42
2022-10-28T22:27:36.913Z,14.39
2022-10-28T22:30:03.074Z,14.39
2022-10-28T22:32:29.201Z,14.36
2022-10-28T22:34:55.346Z,14.32
2022-10-28T22:37:21.488Z,14.31
2022-10-28T22:39:47.622Z,14.28
2022-10-28T22:42:13.723Z,14.25
2022-10-28T22:44:39.844Z,14.22
2022-10-28T22:47:05.982Z,14.21
2022-10-28T22:49:32.117Z,14.20
2022-10-28T22:51:58.249Z,14.16
2022-10-28T22:54:24.369Z,14.11
2022-10-28T22:56:50.494Z,14.10
2022-10-28T22:59:16.688Z,14.09
2022-10-28T23:01:42.904Z,14.08
2022-10-28T23:04:09.097Z,14.05
2022-10-28T23:06:35.232Z,14.04
2022-10-28T23:09:01.392Z,14.00
2022-10-28T23:11:27.549Z,13.98
2022-10-28T23:13:53.667Z,13.99
2022-10-28T23:16:19.794Z,13.97
2022-10-28T23:18:45.922Z,14.06
2022-10-28T23:21:12.046Z,14.06
2022-10-28T23:23:38.183Z,14.04
2022-10-28T23:26:04.315Z,14.03
2022-10-28T23:28:30.453Z,14.07
2022-10-28T23:30:56.560Z,14.08
2022-10-28T23:33:22.679Z,14.09
2022-10-28T23:35:48.842Z,14.11
2022-10-28T23:38:15.030Z,14.17
2022-10-28T23:40:41.176Z,14.23
2022-10-28T23:43:07.300Z,14.29
2022-10-28T23:45:33.416Z,14.33
2022-10-28T23:47:59.576Z,14.38
2022-10-28T23:50:25.698Z,14.39
2022-10-28T23:52:51.900Z,14.41
2022-10-28T23:55:18.103Z,14.43
2022-10-28T23:57:44.272Z,14.43
